sensor_id;sensor_type;location;lat;lon;timestamp;P1;durP1;ratioP1;P2;durP2;ratioP2
41721;SDS011;27407;24.142;-110.310;2023-03-14T00:01:22;17.30;;;2.38;;
41721;SDS011;27407;24.142;-110.310;2023-03-14T00:03:49;9.57;;;1.50;;
41721;SDS011;27407;24.142;-110.310;2023-03-14T00:06:16;5.75;;;1.40;;
41721;SDS011;27407;24.142;-110.310;2023-03-14T00:11:39;11.82;;;2.15;;
41721;SDS011;27407;24.142;-110.310;2023-03-14T00:14:06;13.38;;;1.60;;
41721;SDS011;27407;24.142;-110.310;2023-03-14T00:16:33;13.48;;;1.85;;
41721;SDS011;27407;24.142;-110.310;2023-03-14T00:19:00;24.48;;;2.85;;
41721;SDS011;27407;24.142;-110.310;2023-03-14T00:21:26;16.25;;;2.10;;
41721;SDS011;27407;24.142;-110.310;2023-03-14T00:23:53;14.40;;;1.52;;
41721;SDS011;27407;24.142;-110.310;2023-03-14T00:26:21;16.95;;;1.90;;
41721;SDS011;27407;24.142;-110.310;2023-03-14T00:31:36;21.10;;;2.65;;
41721;SDS011;27407;24.142;-110.310;2023-03-14T00:40:12;11.45;;;1.80;;
41721;SDS011;27407;24.142;-110.310;2023-03-14T00:42:45;12.98;;;2.00;;
41721;SDS011;27407;24.142;-110.310;2023-03-14T00:45:18;7.93;;;1.40;;
41721;SDS011;27407;24.142;-110.310;2023-03-14T00:48:05;5.07;;;1.23;;
41721;SDS011;27407;24.142;-110.310;2023-03-14T00:50:32;14.23;;;1.55;;
41721;SDS011;27407;24.142;-110.310;2023-03-14T00:53:17;21.08;;;2.15;;
41721;SDS011;27407;24.142;-110.310;2023-03-14T00:55:48;12.65;;;1.55;;
41721;SDS011;27407;24.142;-110.310;2023-03-14T00:59:06;18.65;;;2.13;;
41721;SDS011;27407;24.142;-110.310;2023-03-14T01:01:36;18.85;;;1.98;;
41721;SDS011;27407;24.142;-110.310;2023-03-14T01:04:07;11.57;;;2.22;;
41721;SDS011;27407;24.142;-110.310;2023-03-14T01:07:08;21.40;;;1.90;;
41721;SDS011;27407;24.142;-110.310;2023-03-14T01:09:38;25.27;;;2.95;;
41721;SDS011;27407;24.142;-110.310;2023-03-14T01:12:11;4.60;;;1.20;;
41721;SDS011;27407;24.142;-110.310;2023-03-14T01:14:38;15.35;;;1.88;;
41721;SDS011;27407;24.142;-110.310;2023-03-14T01:17:18;19.15;;;2.40;;
41721;SDS011;27407;24.142;-110.310;2023-03-14T01:19:48;15.05;;;1.60;;
41721;SDS011;27407;24.142;-110.310;2023-03-14T01:22:16;13.77;;;1.88;;
41721;SDS011;27407;24.142;-110.310;2023-03-14T01:25:01;15.02;;;2.47;;
41721;SDS011;27407;24.142;-110.310;2023-03-14T01:27:32;15.73;;;2.40;;
41721;SDS011;27407;24.142;-110.310;2023-03-14T01:29:59;15.90;;;2.35;;
41721;SDS011;27407;24.142;-110.310;2023-03-14T01:32:29;36.03;;;2.63;;
41721;SDS011;27407;24.142;-110.310;2023-03-14T01:34:57;13.20;;;2.10;;
41721;SDS011;27407;24.142;-110.310;2023-03-14T01:37:33;14.23;;;2.45;;
41721;SDS011;27407;24.142;-110.310;2023-03-14T01:40:22;19.45;;;2.22;;
41721;SDS011;27407;24.142;-110.310;2023-03-14T01:43:05;23.55;;;2.70;;
41721;SDS011;27407;24.142;-110.310;2023-03-14T01:48:43;21.80;;;2.10;;
41721;SDS011;27407;24.142;-110.310;2023-03-14T01:51:33;7.55;;;1.35;;
41721;SDS011;27407;24.142;-110.310;2023-03-14T01:54:11;14.95;;;1.33;;
41721;SDS011;27407;24.142;-110.310;2023-03-14T01:57:23;20.50;;;1.38;;
41721;SDS011;27407;24.142;-110.310;2023-03-14T02:02:55;6.78;;;1.20;;
41721;SDS011;27407;24.142;-110.310;2023-03-14T02:05:26;17.70;;;1.88;;
41721;SDS011;27407;24.142;-110.310;2023-03-14T02:10:56;16.55;;;1.30;;
41721;SDS011;27407;24.142;-110.310;2023-03-14T02:13:26;15.52;;;1.55;;
41721;SDS011;27407;24.142;-110.310;2023-03-14T02:15:52;32.53;;;1.58;;
41721;SDS011;27407;24.142;-110.310;2023-03-14T02:18:19;49.05;;;4.47;;
41721;SDS011;27407;24.142;-110.310;2023-03-14T02:26:06;88.53;;;7.60;;
41721;SDS011;27407;24.142;-110.310;2023-03-14T02:28:37;19.48;;;5.35;;
41721;SDS011;27407;24.142;-110.310;2023-03-14T02:31:04;13.25;;;2.72;;
41721;SDS011;27407;24.142;-110.310;2023-03-14T02:33:31;11.45;;;2.15;;
41721;SDS011;27407;24.142;-110.310;2023-03-14T02:36:15;17.08;;;2.35;;
41721;SDS011;27407;24.142;-110.310;2023-03-14T02:38:55;10.82;;;1.83;;
41721;SDS011;27407;24.142;-110.310;2023-03-14T02:41:41;28.17;;;3.15;;
41721;SDS011;27407;24.142;-110.310;2023-03-14T02:44:10;15.88;;;2.50;;
41721;SDS011;27407;24.142;-110.310;2023-03-14T02:46:37;10.65;;;2.22;;
41721;SDS011;27407;24.142;-110.310;2023-03-14T02:49:05;29.23;;;3.25;;
41721;SDS011;27407;24.142;-110.310;2023-03-14T02:51:36;12.30;;;1.95;;
41721;SDS011;27407;24.142;-110.310;2023-03-14T02:54:03;9.07;;;1.42;;
41721;SDS011;27407;24.142;-110.310;2023-03-14T02:56:30;5.85;;;1.33;;
41721;SDS011;27407;24.142;-110.310;2023-03-14T02:58:57;31.27;;;1.52;;
41721;SDS011;27407;24.142;-110.310;2023-03-14T03:01:24;11.25;;;1.17;;
41721;SDS011;27407;24.142;-110.310;2023-03-14T03:03:50;12.30;;;1.20;;
41721;SDS011;27407;24.142;-110.310;2023-03-14T03:06:17;12.45;;;1.15;;
41721;SDS011;27407;24.142;-110.310;2023-03-14T03:08:44;16.15;;;1.67;;
41721;SDS011;27407;24.142;-110.310;2023-03-14T03:11:10;21.50;;;1.83;;
41721;SDS011;27407;24.142;-110.310;2023-03-14T03:13:37;11.77;;;1.35;;
41721;SDS011;27407;24.142;-110.310;2023-03-14T03:16:04;14.85;;;1.35;;
41721;SDS011;27407;24.142;-110.310;2023-03-14T03:18:31;11.27;;;1.38;;
41721;SDS011;27407;24.142;-110.310;2023-03-14T03:21:01;21.60;;;2.88;;
41721;SDS011;27407;24.142;-110.310;2023-03-14T03:23:29;12.98;;;2.28;;
41721;SDS011;27407;24.142;-110.310;2023-03-14T03:25:55;139.30;;;11.32;;
41721;SDS011;27407;24.142;-110.310;2023-03-14T03:28:22;146.48;;;10.73;;
41721;SDS011;27407;24.142;-110.310;2023-03-14T03:30:49;117.90;;;8.50;;
41721;SDS011;27407;24.142;-110.310;2023-03-14T03:33:16;154.43;;;11.27;;
41721;SDS011;27407;24.142;-110.310;2023-03-14T03:35:46;51.83;;;5.15;;
41721;SDS011;27407;24.142;-110.310;2023-03-14T03:38:14;178.02;;;12.00;;
41721;SDS011;27407;24.142;-110.310;2023-03-14T03:40:41;146.52;;;10.45;;
41721;SDS011;27407;24.142;-110.310;2023-03-14T03:43:08;69.97;;;8.38;;
41721;SDS011;27407;24.142;-110.310;2023-03-14T03:45:35;177.30;;;12.85;;
41721;SDS011;27407;24.142;-110.310;2023-03-14T03:48:02;175.52;;;11.73;;
41721;SDS011;27407;24.142;-110.310;2023-03-14T03:50:28;136.70;;;16.63;;
41721;SDS011;27407;24.142;-110.310;2023-03-14T03:52:55;159.90;;;14.13;;
41721;SDS011;27407;24.142;-110.310;2023-03-14T03:55:22;156.82;;;12.50;;
41721;SDS011;27407;24.142;-110.310;2023-03-14T03:57:48;105.72;;;12.77;;
41721;SDS011;27407;24.142;-110.310;2023-03-14T04:00:15;95.05;;;13.57;;
41721;SDS011;27407;24.142;-110.310;2023-03-14T04:02:42;108.03;;;10.30;;
41721;SDS011;27407;24.142;-110.310;2023-03-14T04:05:09;229.95;;;20.00;;
41721;SDS011;27407;24.142;-110.310;2023-03-14T04:07:36;134.63;;;14.83;;
41721;SDS011;27407;24.142;-110.310;2023-03-14T04:10:03;173.57;;;18.00;;
41721;SDS011;27407;24.142;-110.310;2023-03-14T04:12:30;198.27;;;17.73;;
41721;SDS011;27407;24.142;-110.310;2023-03-14T04:14:56;95.00;;;12.87;;
41721;SDS011;27407;24.142;-110.310;2023-03-14T04:17:23;99.00;;;11.93;;
41721;SDS011;27407;24.142;-110.310;2023-03-14T04:19:50;73.17;;;9.20;;
41721;SDS011;27407;24.142;-110.310;2023-03-14T04:22:19;73.07;;;7.82;;
41721;SDS011;27407;24.142;-110.310;2023-03-14T04:24:46;117.50;;;11.23;;
41721;SDS011;27407;24.142;-110.310;2023-03-14T04:27:13;203.43;;;18.70;;
41721;SDS011;27407;24.142;-110.310;2023-03-14T04:29:40;149.90;;;13.30;;
41721;SDS011;27407;24.142;-110.310;2023-03-14T04:32:07;94.87;;;10.13;;
41721;SDS011;27407;24.142;-110.310;2023-03-14T04:34:34;78.97;;;9.23;;
41721;SDS011;27407;24.142;-110.310;2023-03-14T04:37:01;116.30;;;11.10;;
41721;SDS011;27407;24.142;-110.310;2023-03-14T04:39:27;80.23;;;8.20;;
41721;SDS011;27407;24.142;-110.310;2023-03-14T04:41:54;65.33;;;7.83;;
41721;SDS011;27407;24.142;-110.310;2023-03-14T04:44:21;32.33;;;5.87;;
41721;SDS011;27407;24.142;-110.310;2023-03-14T04:46:47;49.07;;;5.00;;
41721;SDS011;27407;24.142;-110.310;2023-03-14T04:49:14;68.03;;;7.03;;
41721;SDS011;27407;24.142;-110.310;2023-03-14T04:51:41;73.30;;;8.13;;
41721;SDS011;27407;24.142;-110.310;2023-03-14T04:54:07;75.77;;;8.70;;
41721;SDS011;27407;24.142;-110.310;2023-03-14T04:56:34;47.27;;;5.10;;
41721;SDS011;27407;24.142;-110.310;2023-03-14T04:59:02;28.77;;;4.33;;
41721;SDS011;27407;24.142;-110.310;2023-03-14T05:01:29;32.90;;;4.63;;
41721;SDS011;27407;24.142;-110.310;2023-03-14T05:03:56;171.80;;;12.37;;
41721;SDS011;27407;24.142;-110.310;2023-03-14T05:06:22;87.97;;;8.70;;
41721;SDS011;27407;24.142;-110.310;2023-03-14T05:08:49;97.80;;;8.83;;
41721;SDS011;27407;24.142;-110.310;2023-03-14T05:11:16;86.50;;;8.33;;
41721;SDS011;27407;24.142;-110.310;2023-03-14T05:13:43;49.77;;;5.80;;
41721;SDS011;27407;24.142;-110.310;2023-03-14T05:16:10;37.20;;;4.93;;
41721;SDS011;27407;24.142;-110.310;2023-03-14T05:18:37;54.60;;;5.90;;
41721;SDS011;27407;24.142;-110.310;2023-03-14T05:21:04;42.30;;;4.87;;
41721;SDS011;27407;24.142;-110.310;2023-03-14T05:23:31;44.77;;;5.57;;
41721;SDS011;27407;24.142;-110.310;2023-03-14T05:25:57;28.77;;;3.57;;
41721;SDS011;27407;24.142;-110.310;2023-03-14T05:28:27;46.10;;;4.57;;
41721;SDS011;27407;24.142;-110.310;2023-03-14T05:30:54;57.30;;;6.33;;
41721;SDS011;27407;24.142;-110.310;2023-03-14T05:33:20;54.67;;;6.10;;
41721;SDS011;27407;24.142;-110.310;2023-03-14T05:35:47;37.57;;;5.23;;
41721;SDS011;27407;24.142;-110.310;2023-03-14T05:38:14;57.20;;;5.97;;
41721;SDS011;27407;24.142;-110.310;2023-03-14T05:40:40;59.83;;;5.70;;
41721;SDS011;27407;24.142;-110.310;2023-03-14T05:43:07;45.23;;;5.23;;
41721;SDS011;27407;24.142;-110.310;2023-03-14T05:45:34;35.90;;;4.47;;
41721;SDS011;27407;24.142;-110.310;2023-03-14T05:48:01;27.30;;;3.50;;
41721;SDS011;27407;24.142;-110.310;2023-03-14T05:50:27;27.50;;;2.60;;
41721;SDS011;27407;24.142;-110.310;2023-03-14T05:52:54;15.00;;;2.90;;
41721;SDS011;27407;24.142;-110.310;2023-03-14T05:55:21;21.97;;;4.50;;
41721;SDS011;27407;24.142;-110.310;2023-03-14T05:57:52;33.87;;;3.20;;
41721;SDS011;27407;24.142;-110.310;2023-03-14T06:00:19;22.43;;;4.30;;
41721;SDS011;27407;24.142;-110.310;2023-03-14T06:02:46;39.07;;;4.97;;
41721;SDS011;27407;24.142;-110.310;2023-03-14T06:05:13;25.27;;;3.73;;
41721;SDS011;27407;24.142;-110.310;2023-03-14T06:07:39;26.20;;;3.40;;
41721;SDS011;27407;24.142;-110.310;2023-03-14T06:10:06;15.73;;;2.73;;
41721;SDS011;27407;24.142;-110.310;2023-03-14T06:12:33;6.63;;;1.53;;
41721;SDS011;27407;24.142;-110.310;2023-03-14T06:15:00;19.07;;;1.63;;
41721;SDS011;27407;24.142;-110.310;2023-03-14T06:17:27;16.90;;;2.27;;
41721;SDS011;27407;24.142;-110.310;2023-03-14T06:19:53;23.37;;;2.57;;
41721;SDS011;27407;24.142;-110.310;2023-03-14T06:22:20;9.87;;;1.20;;
41721;SDS011;27407;24.142;-110.310;2023-03-14T06:24:47;12.50;;;1.70;;
41721;SDS011;27407;24.142;-110.310;2023-03-14T06:27:13;13.07;;;1.80;;
41721;SDS011;27407;24.142;-110.310;2023-03-14T06:29:40;19.37;;;1.97;;
41721;SDS011;27407;24.142;-110.310;2023-03-14T06:32:07;13.13;;;1.97;;
41721;SDS011;27407;24.142;-110.310;2023-03-14T06:34:34;20.63;;;2.00;;
41721;SDS011;27407;24.142;-110.310;2023-03-14T06:37:00;12.23;;;1.40;;
41721;SDS011;27407;24.142;-110.310;2023-03-14T06:39:27;11.20;;;1.20;;
41721;SDS011;27407;24.142;-110.310;2023-03-14T06:41:54;11.87;;;1.43;;
41721;SDS011;27407;24.142;-110.310;2023-03-14T06:44:21;10.70;;;1.43;;
41721;SDS011;27407;24.142;-110.310;2023-03-14T06:46:47;12.57;;;1.53;;
41721;SDS011;27407;24.142;-110.310;2023-03-14T06:49:14;14.47;;;2.50;;
41721;SDS011;27407;24.142;-110.310;2023-03-14T06:51:41;18.97;;;1.70;;
41721;SDS011;27407;24.142;-110.310;2023-03-14T06:54:07;7.13;;;1.17;;
41721;SDS011;27407;24.142;-110.310;2023-03-14T06:56:34;11.77;;;1.43;;
41721;SDS011;27407;24.142;-110.310;2023-03-14T06:59:01;10.10;;;1.27;;
41721;SDS011;27407;24.142;-110.310;2023-03-14T07:01:28;11.97;;;1.40;;
41721;SDS011;27407;24.142;-110.310;2023-03-14T07:03:58;17.30;;;1.97;;
41721;SDS011;27407;24.142;-110.310;2023-03-14T07:06:32;10.10;;;1.47;;
41721;SDS011;27407;24.142;-110.310;2023-03-14T07:08:59;6.90;;;1.17;;
41721;SDS011;27407;24.142;-110.310;2023-03-14T07:11:26;11.20;;;1.20;;
41721;SDS011;27407;24.142;-110.310;2023-03-14T07:13:53;8.30;;;1.37;;
41721;SDS011;27407;24.142;-110.310;2023-03-14T07:16:19;8.07;;;1.07;;
41721;SDS011;27407;24.142;-110.310;2023-03-14T07:18:46;12.63;;;1.50;;
41721;SDS011;27407;24.142;-110.310;2023-03-14T07:21:14;5.80;;;1.47;;
41721;SDS011;27407;24.142;-110.310;2023-03-14T07:23:41;18.80;;;2.70;;
41721;SDS011;27407;24.142;-110.310;2023-03-14T07:26:08;23.00;;;2.50;;
41721;SDS011;27407;24.142;-110.310;2023-03-14T07:28:34;15.93;;;1.80;;
41721;SDS011;27407;24.142;-110.310;2023-03-14T07:31:01;10.00;;;1.90;;
41721;SDS011;27407;24.142;-110.310;2023-03-14T07:33:28;13.00;;;1.60;;
41721;SDS011;27407;24.142;-110.310;2023-03-14T07:35:54;14.97;;;2.00;;
41721;SDS011;27407;24.142;-110.310;2023-03-14T07:38:21;13.23;;;1.90;;
41721;SDS011;27407;24.142;-110.310;2023-03-14T07:40:48;13.67;;;2.10;;
41721;SDS011;27407;24.142;-110.310;2023-03-14T07:43:14;19.00;;;2.37;;
41721;SDS011;27407;24.142;-110.310;2023-03-14T07:45:44;13.37;;;1.87;;
41721;SDS011;27407;24.142;-110.310;2023-03-14T07:48:11;12.23;;;1.73;;
41721;SDS011;27407;24.142;-110.310;2023-03-14T07:50:38;13.90;;;1.83;;
41721;SDS011;27407;24.142;-110.310;2023-03-14T07:53:05;17.40;;;1.43;;
41721;SDS011;27407;24.142;-110.310;2023-03-14T07:55:31;22.87;;;1.90;;
41721;SDS011;27407;24.142;-110.310;2023-03-14T07:57:58;31.47;;;3.00;;
41721;SDS011;27407;24.142;-110.310;2023-03-14T08:00:25;12.47;;;1.97;;
41721;SDS011;27407;24.142;-110.310;2023-03-14T08:02:52;23.20;;;2.67;;
41721;SDS011;27407;24.142;-110.310;2023-03-14T08:05:18;17.13;;;1.80;;
41721;SDS011;27407;24.142;-110.310;2023-03-14T08:07:45;17.33;;;1.90;;
41721;SDS011;27407;24.142;-110.310;2023-03-14T08:10:12;11.97;;;1.50;;
41721;SDS011;27407;24.142;-110.310;2023-03-14T08:12:46;10.73;;;1.67;;
41721;SDS011;27407;24.142;-110.310;2023-03-14T08:15:12;25.03;;;2.13;;
41721;SDS011;27407;24.142;-110.310;2023-03-14T08:17:39;18.07;;;3.17;;
41721;SDS011;27407;24.142;-110.310;2023-03-14T08:20:06;24.37;;;3.07;;
41721;SDS011;27407;24.142;-110.310;2023-03-14T08:22:34;41.77;;;2.93;;
41721;SDS011;27407;24.142;-110.310;2023-03-14T08:25:00;23.27;;;2.67;;
41721;SDS011;27407;24.142;-110.310;2023-03-14T08:27:27;12.30;;;1.90;;
41721;SDS011;27407;24.142;-110.310;2023-03-14T08:29:54;25.80;;;2.80;;
41721;SDS011;27407;24.142;-110.310;2023-03-14T08:32:20;17.63;;;2.53;;
41721;SDS011;27407;24.142;-110.310;2023-03-14T08:34:49;13.53;;;2.03;;
41721;SDS011;27407;24.142;-110.310;2023-03-14T08:37:15;10.23;;;1.60;;
41721;SDS011;27407;24.142;-110.310;2023-03-14T08:39:42;24.23;;;2.20;;
41721;SDS011;27407;24.142;-110.310;2023-03-14T08:42:09;25.90;;;2.60;;
41721;SDS011;27407;24.142;-110.310;2023-03-14T08:44:35;16.60;;;2.27;;
41721;SDS011;27407;24.142;-110.310;2023-03-14T08:47:03;16.20;;;2.27;;
41721;SDS011;27407;24.142;-110.310;2023-03-14T08:49:29;16.43;;;2.47;;
41721;SDS011;27407;24.142;-110.310;2023-03-14T08:51:56;23.20;;;3.00;;
41721;SDS011;27407;24.142;-110.310;2023-03-14T08:54:24;20.23;;;2.50;;
41721;SDS011;27407;24.142;-110.310;2023-03-14T08:56:50;32.17;;;4.43;;
41721;SDS011;27407;24.142;-110.310;2023-03-14T08:59:17;37.57;;;3.70;;
41721;SDS011;27407;24.142;-110.310;2023-03-14T09:01:44;16.43;;;2.90;;
41721;SDS011;27407;24.142;-110.310;2023-03-14T09:04:18;24.03;;;3.07;;
41721;SDS011;27407;24.142;-110.310;2023-03-14T09:06:45;43.77;;;3.53;;
41721;SDS011;27407;24.142;-110.310;2023-03-14T09:09:11;25.27;;;3.30;;
41721;SDS011;27407;24.142;-110.310;2023-03-14T09:11:39;28.60;;;3.33;;
41721;SDS011;27407;24.142;-110.310;2023-03-14T09:14:05;41.40;;;3.77;;
41721;SDS011;27407;24.142;-110.310;2023-03-14T09:16:33;32.60;;;4.63;;
41721;SDS011;27407;24.142;-110.310;2023-03-14T09:19:00;38.83;;;4.90;;
41721;SDS011;27407;24.142;-110.310;2023-03-14T09:21:27;46.63;;;4.83;;
41721;SDS011;27407;24.142;-110.310;2023-03-14T09:23:53;31.20;;;4.10;;
41721;SDS011;27407;24.142;-110.310;2023-03-14T09:26:20;41.53;;;4.57;;
41721;SDS011;27407;24.142;-110.310;2023-03-14T09:28:47;41.70;;;5.00;;
41721;SDS011;27407;24.142;-110.310;2023-03-14T09:31:14;38.17;;;4.50;;
41721;SDS011;27407;24.142;-110.310;2023-03-14T09:33:41;43.83;;;5.90;;
41721;SDS011;27407;24.142;-110.310;2023-03-14T09:36:07;32.17;;;4.53;;
41721;SDS011;27407;24.142;-110.310;2023-03-14T09:38:34;58.67;;;4.73;;
41721;SDS011;27407;24.142;-110.310;2023-03-14T09:41:02;39.00;;;4.97;;
41721;SDS011;27407;24.142;-110.310;2023-03-14T09:43:37;34.93;;;4.33;;
41721;SDS011;27407;24.142;-110.310;2023-03-14T09:46:05;32.07;;;5.10;;
41721;SDS011;27407;24.142;-110.310;2023-03-14T09:48:35;35.13;;;4.53;;
41721;SDS011;27407;24.142;-110.310;2023-03-14T09:51:03;36.67;;;4.10;;
41721;SDS011;27407;24.142;-110.310;2023-03-14T09:53:40;25.93;;;3.10;;
41721;SDS011;27407;24.142;-110.310;2023-03-14T09:56:27;33.97;;;3.67;;
41721;SDS011;27407;24.142;-110.310;2023-03-14T09:58:58;24.93;;;3.40;;
41721;SDS011;27407;24.142;-110.310;2023-03-14T10:01:29;23.60;;;3.07;;
41721;SDS011;27407;24.142;-110.310;2023-03-14T10:03:59;46.97;;;3.47;;
41721;SDS011;27407;24.142;-110.310;2023-03-14T10:06:48;29.93;;;2.97;;
41721;SDS011;27407;24.142;-110.310;2023-03-14T10:09:17;42.93;;;3.43;;
41721;SDS011;27407;24.142;-110.310;2023-03-14T10:11:57;19.17;;;2.67;;
41721;SDS011;27407;24.142;-110.310;2023-03-14T10:14:31;21.20;;;2.87;;
41721;SDS011;27407;24.142;-110.310;2023-03-14T10:17:10;13.60;;;2.17;;
41721;SDS011;27407;24.142;-110.310;2023-03-14T10:22:31;24.23;;;2.17;;
41721;SDS011;27407;24.142;-110.310;2023-03-14T10:25:02;46.80;;;5.00;;
41721;SDS011;27407;24.142;-110.310;2023-03-14T10:27:34;38.17;;;4.60;;
41721;SDS011;27407;24.142;-110.310;2023-03-14T10:30:03;48.23;;;5.70;;
41721;SDS011;27407;24.142;-110.310;2023-03-14T10:32:33;34.03;;;4.13;;
41721;SDS011;27407;24.142;-110.310;2023-03-14T10:37:32;42.57;;;4.40;;
41721;SDS011;27407;24.142;-110.310;2023-03-14T10:40:00;34.47;;;5.03;;
41721;SDS011;27407;24.142;-110.310;2023-03-14T10:42:31;35.83;;;4.77;;
41721;SDS011;27407;24.142;-110.310;2023-03-14T10:45:01;30.53;;;5.40;;
41721;SDS011;27407;24.142;-110.310;2023-03-14T10:47:35;35.87;;;5.23;;
41721;SDS011;27407;24.142;-110.310;2023-03-14T10:52:52;40.50;;;5.13;;
41721;SDS011;27407;24.142;-110.310;2023-03-14T10:55:20;39.43;;;6.13;;
41721;SDS011;27407;24.142;-110.310;2023-03-14T10:57:49;35.93;;;5.07;;
41721;SDS011;27407;24.142;-110.310;2023-03-14T11:00:20;42.90;;;5.70;;
41721;SDS011;27407;24.142;-110.310;2023-03-14T11:07:58;24.03;;;3.90;;
41721;SDS011;27407;24.142;-110.310;2023-03-14T11:16:04;25.60;;;2.90;;
41721;SDS011;27407;24.142;-110.310;2023-03-14T11:18:53;20.27;;;2.23;;
41721;SDS011;27407;24.142;-110.310;2023-03-14T11:30:19;3.67;;;0.70;;
41721;SDS011;27407;24.142;-110.310;2023-03-14T11:35:47;2.57;;;0.63;;
41721;SDS011;27407;24.142;-110.310;2023-03-14T11:40:54;7.70;;;0.60;;
41721;SDS011;27407;24.142;-110.310;2023-03-14T11:45:51;6.60;;;0.80;;
41721;SDS011;27407;24.142;-110.310;2023-03-14T11:51:23;3.80;;;0.60;;
41721;SDS011;27407;24.142;-110.310;2023-03-14T11:59:29;2.57;;;0.57;;
41721;SDS011;27407;24.142;-110.310;2023-03-14T12:07:23;6.97;;;1.00;;
41721;SDS011;27407;24.142;-110.310;2023-03-14T12:10:01;7.23;;;0.67;;
41721;SDS011;27407;24.142;-110.310;2023-03-14T12:12:28;4.60;;;0.80;;
41721;SDS011;27407;24.142;-110.310;2023-03-14T12:14:58;33.20;;;2.70;;
41721;SDS011;27407;24.142;-110.310;2023-03-14T12:17:35;35.30;;;3.67;;
41721;SDS011;27407;24.142;-110.310;2023-03-14T12:22:50;31.60;;;3.70;;
41721;SDS011;27407;24.142;-110.310;2023-03-14T12:25:28;24.97;;;3.83;;
41721;SDS011;27407;24.142;-110.310;2023-03-14T12:35:42;54.37;;;3.87;;
41721;SDS011;27407;24.142;-110.310;2023-03-14T12:38:27;35.43;;;4.10;;
41721;SDS011;27407;24.142;-110.310;2023-03-14T12:43:46;33.80;;;4.13;;
41721;SDS011;27407;24.142;-110.310;2023-03-14T12:48:49;25.70;;;4.77;;
41721;SDS011;27407;24.142;-110.310;2023-03-14T12:51:27;31.67;;;4.67;;
41721;SDS011;27407;24.142;-110.310;2023-03-14T12:54:10;38.70;;;5.33;;
41721;SDS011;27407;24.142;-110.310;2023-03-14T12:59:35;120.43;;;8.70;;
41721;SDS011;27407;24.142;-110.310;2023-03-14T13:02:17;80.13;;;6.80;;
41721;SDS011;27407;24.142;-110.310;2023-03-14T13:12:50;98.40;;;31.20;;
41721;SDS011;27407;24.142;-110.310;2023-03-14T13:15:18;114.90;;;31.93;;
41721;SDS011;27407;24.142;-110.310;2023-03-14T13:17:46;170.93;;;58.17;;
41721;SDS011;27407;24.142;-110.310;2023-03-14T13:20:20;221.17;;;72.80;;
41721;SDS011;27407;24.142;-110.310;2023-03-14T13:22:53;226.87;;;83.97;;
41721;SDS011;27407;24.142;-110.310;2023-03-14T13:25:19;150.80;;;51.83;;
41721;SDS011;27407;24.142;-110.310;2023-03-14T13:27:48;103.87;;;36.30;;
41721;SDS011;27407;24.142;-110.310;2023-03-14T13:30:19;96.70;;;27.30;;
41721;SDS011;27407;24.142;-110.310;2023-03-14T13:32:54;88.73;;;21.30;;
41721;SDS011;27407;24.142;-110.310;2023-03-14T13:37:52;158.37;;;55.70;;
41721;SDS011;27407;24.142;-110.310;2023-03-14T13:40:29;137.57;;;41.37;;
41721;SDS011;27407;24.142;-110.310;2023-03-14T13:43:16;347.83;;;40.40;;
41721;SDS011;27407;24.142;-110.310;2023-03-14T13:45:52;320.23;;;32.47;;
41721;SDS011;27407;24.142;-110.310;2023-03-14T13:48:21;200.40;;;23.30;;
41721;SDS011;27407;24.142;-110.310;2023-03-14T13:51:13;178.23;;;15.07;;
41721;SDS011;27407;24.142;-110.310;2023-03-14T13:53:46;225.20;;;19.60;;
41721;SDS011;27407;24.142;-110.310;2023-03-14T13:56:16;201.40;;;20.40;;
41721;SDS011;27407;24.142;-110.310;2023-03-14T13:58:44;362.53;;;28.70;;
41721;SDS011;27407;24.142;-110.310;2023-03-14T14:01:18;223.73;;;24.73;;
41721;SDS011;27407;24.142;-110.310;2023-03-14T14:04:06;231.60;;;25.37;;
41721;SDS011;27407;24.142;-110.310;2023-03-14T14:06:40;246.97;;;24.53;;
41721;SDS011;27407;24.142;-110.310;2023-03-14T14:09:30;219.53;;;20.87;;
41721;SDS011;27407;24.142;-110.310;2023-03-14T14:12:25;88.50;;;11.47;;
41721;SDS011;27407;24.142;-110.310;2023-03-14T14:15:16;206.00;;;17.37;;
41721;SDS011;27407;24.142;-110.310;2023-03-14T14:22:49;87.23;;;9.00;;
41721;SDS011;27407;24.142;-110.310;2023-03-14T14:25:16;132.33;;;9.50;;
41721;SDS011;27407;24.142;-110.310;2023-03-14T14:27:46;301.93;;;19.57;;
41721;SDS011;27407;24.142;-110.310;2023-03-14T14:32:46;121.60;;;13.40;;
41721;SDS011;27407;24.142;-110.310;2023-03-14T14:35:24;163.97;;;15.07;;
41721;SDS011;27407;24.142;-110.310;2023-03-14T14:37:56;746.00;;;68.77;;
41721;SDS011;27407;24.142;-110.310;2023-03-14T14:40:26;349.70;;;29.53;;
41721;SDS011;27407;24.142;-110.310;2023-03-14T14:42:55;541.77;;;38.60;;
41721;SDS011;27407;24.142;-110.310;2023-03-14T14:45:29;311.43;;;24.63;;
41721;SDS011;27407;24.142;-110.310;2023-03-14T14:48:03;256.20;;;21.47;;
41721;SDS011;27407;24.142;-110.310;2023-03-14T14:56:20;17.83;;;1.70;;
41721;SDS011;27407;24.142;-110.310;2023-03-14T14:58:57;16.63;;;1.47;;
41721;SDS011;27407;24.142;-110.310;2023-03-14T15:01:37;15.60;;;1.87;;
41721;SDS011;27407;24.142;-110.310;2023-03-14T15:04:11;34.27;;;2.80;;
41721;SDS011;27407;24.142;-110.310;2023-03-14T15:06:43;21.00;;;2.03;;
41721;SDS011;27407;24.142;-110.310;2023-03-14T15:09:12;10.57;;;1.67;;
41721;SDS011;27407;24.142;-110.310;2023-03-14T15:11:39;14.13;;;1.53;;
41721;SDS011;27407;24.142;-110.310;2023-03-14T15:14:05;8.23;;;1.47;;
41721;SDS011;27407;24.142;-110.310;2023-03-14T15:16:32;7.57;;;1.50;;
41721;SDS011;27407;24.142;-110.310;2023-03-14T15:19:00;21.90;;;2.30;;
41721;SDS011;27407;24.142;-110.310;2023-03-14T15:21:30;17.25;;;1.92;;
41721;SDS011;27407;24.142;-110.310;2023-03-14T15:23:58;10.93;;;1.67;;
41721;SDS011;27407;24.142;-110.310;2023-03-14T15:26:26;13.45;;;2.22;;
41721;SDS011;27407;24.142;-110.310;2023-03-14T15:28:54;20.77;;;2.00;;
41721;SDS011;27407;24.142;-110.310;2023-03-14T15:31:21;24.57;;;2.70;;
41721;SDS011;27407;24.142;-110.310;2023-03-14T15:33:48;30.98;;;2.10;;
41721;SDS011;27407;24.142;-110.310;2023-03-14T15:36:26;17.98;;;1.83;;
41721;SDS011;27407;24.142;-110.310;2023-03-14T15:38:56;29.77;;;2.38;;
41721;SDS011;27407;24.142;-110.310;2023-03-14T15:41:24;20.25;;;1.73;;
41721;SDS011;27407;24.142;-110.310;2023-03-14T15:43:52;19.75;;;1.70;;
41721;SDS011;27407;24.142;-110.310;2023-03-14T15:46:22;15.98;;;1.70;;
41721;SDS011;27407;24.142;-110.310;2023-03-14T15:49:10;30.05;;;2.22;;
41721;SDS011;27407;24.142;-110.310;2023-03-14T15:51:48;13.95;;;1.35;;
41721;SDS011;27407;24.142;-110.310;2023-03-14T15:54:15;12.15;;;1.42;;
41721;SDS011;27407;24.142;-110.310;2023-03-14T15:56:42;12.27;;;1.20;;
41721;SDS011;27407;24.142;-110.310;2023-03-14T15:59:14;25.50;;;2.05;;
41721;SDS011;27407;24.142;-110.310;2023-03-14T16:01:44;20.20;;;1.80;;
41721;SDS011;27407;24.142;-110.310;2023-03-14T16:04:16;8.02;;;1.70;;
41721;SDS011;27407;24.142;-110.310;2023-03-14T16:06:51;9.32;;;1.05;;
41721;SDS011;27407;24.142;-110.310;2023-03-14T16:09:17;19.77;;;1.90;;